Time;durP1;ratioP1;P1;durP2;ratioP2;P2;SDS_P1;SDS_P2;PMS_P1;PMS_P2;Temp;Humidity;BMP_temperature;BMP_pressure;BME280_temperature;BME280_humidity;BME280_pressure;Samples;Min_cycle;Max_cycle;Signal;HPM_P1;HPM_P2
2022/09/20 00:00:04;;;;;;;0.60;0.60;;;;;6.20;96438.00;;;;5097985;28;20205;-69
2022/09/20 00:02:31;;;;;;;0.83;0.83;;;;;6.20;96434.00;;;;5115912;28;20205;-69
2022/09/20 00:05:00;;;;;;;0.73;0.73;;;;;6.10;96442.00;;;;5115841;28;20659;-70
2022/09/20 00:07:27;;;;;;;0.53;0.53;;;;;6.00;96437.00;;;;5115680;28;20662;-69
2022/09/20 00:09:55;;;;;;;0.70;0.70;;;;;6.00;96439.00;;;;5115952;28;20203;-69
2022/09/20 00:12:22;;;;;;;0.70;0.70;;;;;5.80;96438.00;;;;5115804;28;20569;-69
2022/09/20 00:14:49;;;;;;;1.27;1.03;;;;;5.90;96438.00;;;;5115661;28;20657;-69
2022/09/20 00:17:16;;;;;;;3.00;0.97;;;;;5.90;96435.00;;;;5115693;28;20259;-69
2022/09/20 00:19:44;;;;;;;0.80;0.80;;;;;5.90;96449.00;;;;5115610;28;20226;-67
2022/09/20 00:22:11;;;;;;;1.03;1.03;;;;;5.90;96436.00;;;;5115712;28;20223;-69
2022/09/20 00:24:39;;;;;;;0.80;0.80;;;;;5.90;96447.00;;;;5115554;28;20275;-69
2022/09/20 00:27:05;;;;;;;0.50;0.50;;;;;5.80;96443.00;;;;5115519;28;20227;-69
2022/09/20 00:29:32;;;;;;;0.70;0.70;;;;;5.80;96436.00;;;;5115498;28;20257;-69
2022/09/20 00:31:59;;;;;;;1.10;1.10;;;;;5.80;96436.00;;;;5115435;28;20212;-69
2022/09/20 00:37:13;;;;;;;0.70;0.70;;;;;5.80;96440.00;;;;5115372;28;20548;-69
2022/09/20 00:39:43;;;;;;;0.60;0.60;;;;;5.70;96436.00;;;;5115399;28;20206;-66
2022/09/20 00:42:13;;;;;;;0.60;0.60;;;;;5.50;96444.00;;;;5097370;28;20565;-69
2022/09/20 00:44:44;;;;;;;0.50;0.50;;;;;5.40;96434.00;;;;5115336;28;20205;-69
2022/09/20 00:47:18;;;;;;;0.50;0.50;;;;;5.50;96436.00;;;;5115495;28;20228;-69
2022/09/20 00:49:45;;;;;;;0.60;0.60;;;;;5.20;96443.00;;;;5115212;28;20192;-69
2022/09/20 00:52:12;;;;;;;0.60;0.60;;;;;5.20;96438.00;;;;5115219;28;20182;-69
2022/09/20 00:54:39;;;;;;;0.50;0.50;;;;;5.30;96428.00;;;;5115155;28;20229;-70
2022/09/20 00:57:07;;;;;;;0.70;0.70;;;;;5.30;96439.00;;;;5115115;28;20207;-69
2022/09/20 00:59:37;;;;;;;0.50;0.50;;;;;5.40;96429.00;;;;5115053;28;20213;-69
2022/09/20 01:02:09;;;;;;;0.70;0.70;;;;;5.30;96431.00;;;;5115055;28;20196;-69
2022/09/20 01:04:38;;;;;;;0.50;0.50;;;;;5.10;96427.00;;;;5114960;28;20296;-69
2022/09/20 01:07:07;;;;;;;0.60;0.60;;;;;5.10;96430.00;;;;5114865;28;20222;-69
2022/09/20 01:09:33;;;;;;;0.60;0.60;;;;;5.10;96427.00;;;;5114968;28;20199;-70
2022/09/20 01:12:04;;;;;;;0.50;0.50;;;;;5.10;96432.00;;;;5114916;28;20198;-69
2022/09/20 01:14:32;;;;;;;0.60;0.60;;;;;5.00;96431.00;;;;5114764;28;20225;-68
2022/09/20 01:17:03;;;;;;;1.70;0.97;;;;;5.20;96430.00;;;;5114761;28;20228;-69
2022/09/20 01:19:39;;;;;;;0.70;0.70;;;;;5.20;96435.00;;;;5114808;28;20528;-69
2022/09/20 01:22:13;;;;;;;0.80;0.80;;;;;5.20;96430.00;;;;5114787;28;20676;-69
2022/09/20 01:24:49;;;;;;;0.80;0.80;;;;;5.10;96437.00;;;;5114776;28;20250;-68
2022/09/20 01:27:22;;;;;;;0.60;0.60;;;;;5.20;96439.00;;;;5114719;28;20225;-69
2022/09/20 01:30:06;;;;;;;0.93;0.90;;;;;5.20;96430.00;;;;5114769;28;20191;-69
2022/09/20 01:32:51;;;;;;;0.53;0.53;;;;;5.20;96436.00;;;;5114690;28;20307;-69
2022/09/20 01:35:20;;;;;;;0.60;0.60;;;;;5.10;96430.00;;;;5115302;28;20202;-69
2022/09/20 01:37:59;;;;;;;0.70;0.70;;;;;5.10;96417.00;;;;5115048;28;20205;-69
2022/09/20 01:40:32;;;;;;;0.70;0.70;;;;;5.00;96425.00;;;;5114764;28;20212;-69
2022/09/20 01:43:12;;;;;;;0.60;0.60;;;;;5.00;96426.00;;;;5115519;28;20194;-71
2022/09/20 01:45:41;;;;;;;0.50;0.50;;;;;5.10;96427.00;;;;5115147;28;20208;-70
2022/09/20 01:48:14;;;;;;;1.07;1.03;;;;;5.00;96422.00;;;;5122267;28;20321;-70
2022/09/20 01:51:04;;;;;;;0.80;0.80;;;;;5.10;96430.00;;;;5123651;28;20551;-70
2022/09/20 01:54:15;;;;;;;0.60;0.60;;;;;5.10;96425.00;;;;5125027;28;20195;-70
2022/09/20 01:57:22;;;;;;;0.57;0.57;;;;;5.10;96426.00;;;;5114452;28;20302;-70
2022/09/20 02:00:07;;;;;;;0.70;0.70;;;;;5.00;96421.00;;;;5114384;28;20170;-68
2022/09/20 02:03:00;;;;;;;0.80;0.80;;;;;5.10;96420.00;;;;5114629;28;20209;-68
2022/09/20 02:06:00;;;;;;;0.57;0.57;;;;;5.10;96417.00;;;;5114157;28;20289;-68
2022/09/20 02:08:48;;;;;;;0.60;0.60;;;;;5.00;96416.00;;;;5108349;28;20229;-69
2022/09/20 02:11:16;;;;;;;0.53;0.53;;;;;4.90;96418.00;;;;5113928;28;20637;-68
2022/09/20 02:14:02;;;;;;;0.70;0.70;;;;;4.90;96405.00;;;;5114284;28;20281;-68
2022/09/20 02:16:52;;;;;;;0.60;0.60;;;;;4.80;96406.00;;;;5114133;28;20206;-68
2022/09/20 02:20:11;;;;;;;0.60;0.60;;;;;4.80;96398.00;;;;5113959;28;20202;-69
2022/09/20 02:22:48;;;;;;;0.60;0.60;;;;;4.80;96397.00;;;;5011665;28;20201;-69
2022/09/20 02:25:33;;;;;;;0.60;0.60;;;;;4.80;96393.00;;;;5096630;28;20213;-70
2022/09/20 02:28:16;;;;;;;0.77;0.77;;;;;4.90;96398.00;;;;5113625;28;20239;-70
2022/09/20 02:30:51;;;;;;;0.60;0.60;;;;;4.80;96402.00;;;;5113723;28;20282;-69
2022/09/20 02:33:43;;;;;;;1.23;1.13;;;;;4.80;96392.00;;;;5113620;28;20201;-70
2022/09/20 02:36:26;;;;;;;0.73;0.73;;;;;4.80;96401.00;;;;5113815;28;20250;-70
2022/09/20 02:39:04;;;;;;;0.60;0.60;;;;;4.80;96407.00;;;;5113641;28;20339;-70
2022/09/20 02:41:52;;;;;;;1.30;1.20;;;;;4.80;96404.00;;;;5113565;28;20219;-69
2022/09/20 02:44:45;;;;;;;0.60;0.60;;;;;4.80;96398.00;;;;5095453;28;20199;-70
2022/09/20 02:47:20;;;;;;;0.70;0.70;;;;;4.80;96409.00;;;;5105019;28;20261;-69
2022/09/20 02:49:58;;;;;;;0.50;0.50;;;;;4.80;96401.00;;;;5113423;28;20654;-67
2022/09/20 02:52:35;;;;;;;0.60;0.60;;;;;4.80;96398.00;;;;5113376;28;20251;-69
2022/09/20 02:55:09;;;;;;;0.80;0.80;;;;;4.80;96406.00;;;;5113454;28;20214;-69
2022/09/20 02:57:46;;;;;;;0.73;0.73;;;;;4.50;96409.00;;;;5113275;28;20228;-70
2022/09/20 03:00:18;;;;;;;0.90;0.90;;;;;4.50;96410.00;;;;5113333;28;20206;-70
2022/09/20 03:02:59;;;;;;;0.60;0.60;;;;;4.40;96419.00;;;;5098442;28;20641;-70
2022/09/20 03:05:35;;;;;;;0.90;0.90;;;;;4.60;96414.00;;;;5117057;28;20189;-70
2022/09/20 03:08:20;;;;;;;0.70;0.70;;;;;4.60;96422.00;;;;5116824;28;20222;-70
2022/09/20 03:10:56;;;;;;;0.60;0.60;;;;;4.60;96417.00;;;;5117092;28;20200;-70
2022/09/20 03:13:30;;;;;;;0.60;0.60;;;;;4.60;96416.00;;;;5116862;28;20217;-70
2022/09/20 03:16:08;;;;;;;1.93;1.83;;;;;4.70;96417.00;;;;5116850;28;20217;-70
2022/09/20 03:18:46;;;;;;;0.50;0.50;;;;;4.80;96421.00;;;;5116568;28;20215;-70
2022/09/20 03:21:27;;;;;;;0.90;0.90;;;;;4.80;96422.00;;;;5116825;28;20198;-70
2022/09/20 03:24:04;;;;;;;0.60;0.60;;;;;4.80;96427.00;;;;5116648;28;20235;-70
2022/09/20 03:26:42;;;;;;;0.80;0.80;;;;;4.80;96422.00;;;;5116623;28;20189;-70
2022/09/20 03:29:21;;;;;;;0.70;0.70;;;;;4.70;96423.00;;;;5116468;28;20291;-70
2022/09/20 03:32:02;;;;;;;0.60;0.60;;;;;4.60;96428.00;;;;5098508;28;20206;-70
2022/09/20 03:34:41;;;;;;;0.60;0.60;;;;;4.70;96420.00;;;;5116544;28;20218;-70
2022/09/20 03:37:25;;;;;;;0.77;0.70;;;;;4.70;96413.00;;;;5116467;28;20197;-70
2022/09/20 03:40:22;;;;;;;0.80;0.80;;;;;4.80;96419.00;;;;5116424;28;20194;-70
2022/09/20 03:42:52;;;;;;;0.60;0.60;;;;;4.80;96424.00;;;;5116349;28;20207;-70
2022/09/20 03:45:33;;;;;;;1.10;1.00;;;;;4.70;96416.00;;;;5098321;28;20205;-70
2022/09/20 03:48:25;;;;;;;0.60;0.60;;;;;4.80;96423.00;;;;5098170;28;20506;-70
2022/09/20 03:51:03;;;;;;;0.70;0.70;;;;;4.80;96438.00;;;;5112348;28;20279;-70
2022/09/20 03:54:19;;;;;;;0.60;0.60;;;;;4.80;96428.00;;;;5098125;28;20236;-70
2022/09/20 03:57:12;;;;;;;0.67;0.67;;;;;4.60;96431.00;;;;5014031;28;20198;-69
2022/09/20 03:59:58;;;;;;;0.70;0.70;;;;;4.70;96442.00;;;;5116032;28;20222;-70
2022/09/20 04:02:44;;;;;;;0.80;0.80;;;;;4.80;96434.00;;;;5116128;28;20691;-69
2022/09/20 04:05:16;;;;;;;0.60;0.60;;;;;4.80;96448.00;;;;5116003;28;20190;-69
2022/09/20 04:07:59;;;;;;;0.87;0.87;;;;;4.80;96438.00;;;;5097741;28;20218;-69
2022/09/20 04:10:35;;;;;;;1.07;1.07;;;;;4.80;96438.00;;;;5115895;28;20189;-69
2022/09/20 04:13:20;;;;;;;0.60;0.60;;;;;4.80;96429.00;;;;5115304;28;20197;-69
2022/09/20 04:16:03;;;;;;;0.50;0.50;;;;;4.80;96433.00;;;;5115814;28;20203;-69
2022/09/20 04:18:36;;;;;;;0.70;0.70;;;;;4.80;96436.00;;;;5115848;28;20577;-69
2022/09/20 04:21:10;;;;;;;0.70;0.70;;;;;4.80;96436.00;;;;5097838;28;20205;-69
2022/09/20 04:23:47;;;;;;;0.80;0.80;;;;;4.90;96434.00;;;;5115539;28;20272;-67
2022/09/20 04:26:16;;;;;;;0.67;0.67;;;;;4.90;96435.00;;;;5115653;28;20202;-69
2022/09/20 04:28:51;;;;;;;0.50;0.50;;;;;4.90;96441.00;;;;5115400;28;20222;-67
2022/09/20 04:31:31;;;;;;;1.30;1.07;;;;;5.00;96439.00;;;;5115599;28;20201;-69
2022/09/20 04:34:01;;;;;;;0.60;0.60;;;;;4.90;96439.00;;;;5115618;28;20347;-70
2022/09/20 04:36:48;;;;;;;0.70;0.70;;;;;4.90;96436.00;;;;5115458;28;20519;-70
2022/09/20 04:39:24;;;;;;;0.60;0.60;;;;;4.90;96448.00;;;;5115334;28;20290;-70
2022/09/20 04:42:29;;;;;;;0.83;0.83;;;;;4.80;96433.00;;;;5115338;28;20176;-70
2022/09/20 04:45:41;;;;;;;0.90;0.90;;;;;4.90;96441.00;;;;5115231;28;20285;-69
2022/09/20 04:48:55;;;;;;;0.67;0.67;;;;;4.80;96447.00;;;;5115211;28;20241;-69
2022/09/20 04:52:13;;;;;;;0.70;0.70;;;;;5.20;96458.00;;;;5115536;28;20198;-69
2022/09/20 04:55:11;;;;;;;0.70;0.70;;;;;5.20;96467.00;;;;5115192;28;20228;-70
2022/09/20 04:58:07;;;;;;;0.63;0.63;;;;;5.30;96459.00;;;;5115127;28;20192;-72
2022/09/20 05:00:55;;;;;;;0.77;0.77;;;;;5.60;96471.00;;;;5115284;28;20370;-70
2022/09/20 05:03:50;;;;;;;0.70;0.70;;;;;5.90;96476.00;;;;5115151;28;20269;-70
2022/09/20 05:06:53;;;;;;;0.90;0.90;;;;;5.90;96468.00;;;;5115250;28;20212;-72
2022/09/20 05:09:49;;;;;;;0.90;0.90;;;;;5.70;96472.00;;;;5072905;28;20237;-70
2022/09/20 05:12:47;;;;;;;0.70;0.70;;;;;5.60;96470.00;;;;5114887;28;20258;-69
2022/09/20 05:15:35;;;;;;;0.70;0.70;;;;;5.50;96467.00;;;;5114707;28;20225;-70
2022/09/20 05:18:32;;;;;;;0.70;0.70;;;;;5.40;96477.00;;;;5114807;28;20258;-70
2022/09/20 05:21:11;;;;;;;0.50;0.50;;;;;5.30;96467.00;;;;5106608;28;20226;-70
2022/09/20 05:24:01;;;;;;;0.80;0.80;;;;;5.40;96473.00;;;;5095840;28;20223;-69
2022/09/20 05:26:42;;;;;;;0.70;0.70;;;;;5.40;96478.00;;;;5114593;28;20198;-69
2022/09/20 05:29:17;;;;;;;1.17;1.17;;;;;5.50;96477.00;;;;5114514;28;20182;-69
2022/09/20 05:31:50;;;;;;;0.90;0.90;;;;;5.50;96472.00;;;;5114705;28;20194;-70
2022/09/20 05:34:29;;;;;;;1.87;1.07;;;;;5.50;96485.00;;;;5096456;28;20227;-70
2022/09/20 05:37:05;;;;;;;0.83;0.83;;;;;5.50;96476.00;;;;5096541;28;20640;-70
2022/09/20 05:39:39;;;;;;;0.50;0.50;;;;;5.50;96489.00;;;;5096312;28;20278;-68
2022/09/20 05:42:18;;;;;;;0.87;0.87;;;;;5.60;96497.00;;;;5096382;28;20221;-70
2022/09/20 05:44:56;;;;;;;0.73;0.73;;;;;5.50;96489.00;;;;5114277;28;20776;-70
2022/09/20 05:47:35;;;;;;;0.70;0.70;;;;;5.50;96496.00;;;;5114238;28;20223;-69
2022/09/20 05:50:23;;;;;;;0.70;0.70;;;;;5.50;96493.00;;;;5114182;28;20241;-67
2022/09/20 05:52:57;;;;;;;0.90;0.90;;;;;5.60;96495.00;;;;5114144;28;20541;-70
2022/09/20 05:55:48;;;;;;;0.50;0.50;;;;;5.60;96499.00;;;;5114243;28;20216;-70
2022/09/20 05:58:42;;;;;;;0.53;0.53;;;;;5.60;96504.00;;;;5114040;28;20676;-70
2022/09/20 06:01:14;;;;;;;0.77;0.77;;;;;5.80;96493.00;;;;5114037;28;20230;-69
2022/09/20 06:03:45;;;;;;;0.60;0.60;;;;;5.80;96499.00;;;;5114312;28;20281;-68
2022/09/20 06:06:21;;;;;;;0.80;0.80;;;;;5.80;96512.00;;;;5114103;28;20238;-65
2022/09/20 06:09:16;;;;;;;0.50;0.50;;;;;6.00;96492.00;;;;5114113;28;20221;-68
2022/09/20 06:12:01;;;;;;;0.73;0.73;;;;;6.00;96500.00;;;;5102778;28;20684;-67
2022/09/20 06:14:42;;;;;;;0.50;0.50;;;;;6.10;96504.00;;;;5114096;28;20208;-67
2022/09/20 06:17:18;;;;;;;0.67;0.67;;;;;6.10;96505.00;;;;5113982;28;20225;-66
2022/09/20 06:19:49;;;;;;;0.60;0.60;;;;;6.10;96509.00;;;;5114056;28;20232;-69
2022/09/20 06:22:22;;;;;;;0.60;0.60;;;;;6.20;96498.00;;;;5095507;28;20244;-68
2022/09/20 06:24:55;;;;;;;0.70;0.70;;;;;6.20;96504.00;;;;5114900;28;20213;-69
2022/09/20 06:27:27;;;;;;;0.60;0.60;;;;;6.30;96498.00;;;;5114384;28;20216;-70
2022/09/20 06:29:57;;;;;;;0.50;0.50;;;;;6.40;96503.00;;;;5114170;28;20174;-67
2022/09/20 06:32:24;;;;;;;0.70;0.70;;;;;6.50;96504.00;;;;5113644;28;20284;-69
2022/09/20 06:34:52;;;;;;;0.70;0.70;;;;;6.60;96498.00;;;;5113239;28;20221;-69
2022/09/20 06:43:18;;;;;;;0.50;0.50;;;;;6.60;96452.00;;;;5095284;28;20193;-68
2022/09/20 06:45:45;;;;;;;0.70;0.70;;;;;6.70;96509.00;;;;5113562;28;20221;-69
2022/09/20 06:48:14;;;;;;;0.70;0.70;;;;;6.70;96492.00;;;;5113339;28;20271;-69
2022/09/20 06:50:44;;;;;;;0.60;0.60;;;;;6.60;96507.00;;;;5113423;28;20202;-68
2022/09/20 06:53:16;;;;;;;0.60;0.60;;;;;6.60;96506.00;;;;5113806;28;20630;-67
2022/09/20 06:55:46;;;;;;;0.80;0.80;;;;;6.80;96511.00;;;;5113565;28;20270;-69
2022/09/20 06:58:15;;;;;;;0.60;0.60;;;;;6.80;96504.00;;;;5113171;28;20225;-69
2022/09/20 07:00:42;;;;;;;0.73;0.73;;;;;6.90;96502.00;;;;5113363;28;20194;-69
2022/09/20 07:03:11;;;;;;;0.73;0.73;;;;;7.00;96506.00;;;;5113291;28;20282;-68
2022/09/20 07:05:38;;;;;;;0.70;0.70;;;;;7.10;96503.00;;;;5113125;28;20235;-67
2022/09/20 07:08:05;;;;;;;0.90;0.90;;;;;7.10;96506.00;;;;5113101;28;20261;-68
2022/09/20 07:10:34;;;;;;;0.80;0.80;;;;;7.20;96513.00;;;;5113156;28;20284;-67
2022/09/20 07:13:02;;;;;;;0.90;0.90;;;;;7.20;96508.00;;;;5113080;28;20206;-68
2022/09/20 07:15:30;;;;;;;0.70;0.70;;;;;7.30;96512.00;;;;5095169;28;20624;-69
2022/09/20 07:17:58;;;;;;;0.67;0.67;;;;;7.40;96519.00;;;;5112927;28;20261;-69
2022/09/20 07:20:25;;;;;;;0.50;0.50;;;;;7.50;96517.00;;;;5113707;28;20230;-68
2022/09/20 07:22:52;;;;;;;0.50;0.50;;;;;7.70;96520.00;;;;5095142;28;20541;-67
2022/09/20 07:25:20;;;;;;;1.23;1.13;;;;;7.70;96513.00;;;;5112847;28;20190;-68
2022/09/20 07:27:50;;;;;;;0.77;0.77;;;;;7.80;96519.00;;;;5112735;28;20214;-69
2022/09/20 07:30:19;;;;;;;0.60;0.60;;;;;8.00;96519.00;;;;5112766;28;20255;-69
2022/09/20 07:32:45;;;;;;;1.00;1.00;;;;;8.10;96521.00;;;;5112496;28;20706;-69
2022/09/20 07:35:13;;;;;;;0.73;0.73;;;;;8.30;96519.00;;;;5112755;28;20651;-69
2022/09/20 07:37:40;;;;;;;0.83;0.83;;;;;8.40;96523.00;;;;5113391;28;20697;-69
2022/09/20 07:40:09;;;;;;;1.20;1.20;;;;;8.50;96525.00;;;;5112713;28;20245;-69
2022/09/20 07:42:38;;;;;;;1.10;1.10;;;;;8.60;96523.00;;;;5112586;28;20198;-68
2022/09/20 07:45:11;;;;;;;0.60;0.60;;;;;8.70;96528.00;;;;5094724;28;20207;-69
2022/09/20 07:47:40;;;;;;;0.93;0.93;;;;;8.80;96530.00;;;;5114105;28;20206;-68
2022/09/20 07:50:10;;;;;;;0.60;0.60;;;;;9.00;96534.00;;;;5116120;28;20225;-69
2022/09/20 07:52:36;;;;;;;1.33;1.00;;;;;9.20;96532.00;;;;5098318;28;20279;-69
2022/09/20 07:55:06;;;;;;;0.67;0.67;;;;;9.30;96541.00;;;;5116196;28;20221;-66
2022/09/20 07:57:36;;;;;;;21.87;1.27;;;;;9.50;96535.00;;;;5116299;28;20202;-69
2022/09/20 08:00:04;;;;;;;1.07;1.00;;;;;9.50;96542.00;;;;5116629;28;20225;-67
2022/09/20 08:02:32;;;;;;;0.47;0.47;;;;;9.70;96547.00;;;;5116808;28;20659;-69
2022/09/20 08:05:00;;;;;;;0.70;0.70;;;;;9.90;96538.00;;;;5117181;28;20196;-69
2022/09/20 08:07:28;;;;;;;0.77;0.77;;;;;10.00;96543.00;;;;5116204;28;20282;-69
2022/09/20 08:09:54;;;;;;;0.50;0.50;;;;;10.20;96540.00;;;;5116225;28;20194;-67
2022/09/20 08:12:21;;;;;;;2.73;1.00;;;;;10.30;96552.00;;;;5116087;28;20224;-67
2022/09/20 08:14:48;;;;;;;0.70;0.70;;;;;10.50;96559.00;;;;5098211;28;20248;-69
2022/09/20 08:17:16;;;;;;;2.20;1.57;;;;;10.50;96558.00;;;;5115906;28;20285;-66
2022/09/20 08:19:43;;;;;;;0.67;0.67;;;;;10.60;96556.00;;;;5115784;28;20190;-65
2022/09/20 08:22:11;;;;;;;0.57;0.57;;;;;10.80;96560.00;;;;5115873;28;20200;-69
2022/09/20 08:24:38;;;;;;;0.60;0.60;;;;;11.10;96565.00;;;;5115804;28;20309;-69
2022/09/20 08:27:07;;;;;;;0.63;0.63;;;;;11.30;96560.00;;;;5115745;28;20218;-69
2022/09/20 08:29:34;;;;;;;0.43;0.43;;;;;11.50;96571.00;;;;5115552;28;20217;-68
2022/09/20 08:32:02;;;;;;;0.60;0.60;;;;;11.70;96570.00;;;;5115793;28;20639;-66
2022/09/20 08:34:29;;;;;;;2.83;1.03;;;;;11.90;96570.00;;;;5097641;28;20206;-68
2022/09/20 08:36:56;;;;;;;0.70;0.70;;;;;12.00;96561.00;;;;5097695;28;20202;-69
2022/09/20 08:39:23;;;;;;;0.50;0.50;;;;;12.00;96563.00;;;;5115593;28;20279;-69
2022/09/20 08:41:56;;;;;;;1.20;0.90;;;;;12.00;96565.00;;;;5115482;28;20213;-69
2022/09/20 08:44:31;;;;;;;0.50;0.50;;;;;12.10;96558.00;;;;5115567;28;20193;-69
2022/09/20 08:47:06;;;;;;;0.50;0.50;;;;;12.20;96560.00;;;;5115257;28;20245;-69
2022/09/20 08:49:33;;;;;;;14.17;0.90;;;;;12.30;96560.00;;;;5115367;28;20194;-70
2022/09/20 08:52:04;;;;;;;0.57;0.57;;;;;12.20;96560.00;;;;5115350;28;20194;-67
2022/09/20 08:54:34;;;;;;;0.70;0.70;;;;;12.20;96559.00;;;;5115237;28;20190;-69
2022/09/20 08:57:10;;;;;;;1.27;0.87;;;;;12.10;96560.00;;;;5115417;28;20212;-69
2022/09/20 08:59:37;;;;;;;0.67;0.67;;;;;12.30;96555.00;;;;5113942;28;20218;-69
2022/09/20 09:02:14;;;;;;;0.40;0.40;;;;;12.50;96557.00;;;;5115380;28;20202;-69
2022/09/20 09:04:43;;;;;;;12.53;0.90;;;;;12.60;96550.00;;;;5115607;28;20251;-69
2022/09/20 09:07:12;;;;;;;0.93;0.93;;;;;12.60;96537.00;;;;5115011;28;20222;-69
2022/09/20 09:09:42;;;;;;;7.83;0.90;;;;;13.20;96555.00;;;;5115203;28;20267;-69
2022/09/20 09:12:18;;;;;;;0.50;0.50;;;;;13.30;96544.00;;;;5115209;28;20198;-64
2022/09/20 09:14:47;;;;;;;1.00;0.97;;;;;13.30;96556.00;;;;5097176;28;20198;-67
2022/09/20 09:17:16;;;;;;;0.50;0.50;;;;;13.30;96560.00;;;;5115041;28;20244;-69
2022/09/20 09:19:45;;;;;;;0.70;0.70;;;;;13.00;96557.00;;;;5114980;28;20194;-69
2022/09/20 09:22:18;;;;;;;0.53;0.53;;;;;12.50;96562.00;;;;5114865;28;20237;-67
2022/09/20 09:24:46;;;;;;;0.50;0.50;;;;;12.50;96557.00;;;;5115318;28;20214;-69
2022/09/20 09:27:16;;;;;;;0.70;0.70;;;;;12.50;96557.00;;;;5114813;28;20221;-67
2022/09/20 09:29:51;;;;;;;0.43;0.43;;;;;12.70;96550.00;;;;5114831;28;20193;-67
2022/09/20 09:32:23;;;;;;;1.10;1.10;;;;;13.00;96556.00;;;;5115679;28;20669;-68
2022/09/20 09:34:50;;;;;;;0.87;0.87;;;;;12.90;96560.00;;;;5097308;28;20266;-68
2022/09/20 09:37:27;;;;;;;0.50;0.50;;;;;12.60;96558.00;;;;5114719;28;20648;-68
2022/09/20 09:40:12;;;;;;;0.50;0.50;;;;;12.50;96550.00;;;;5114665;28;20243;-68
2022/09/20 09:42:49;;;;;;;0.87;0.87;;;;;12.50;96552.00;;;;5114702;28;20286;-68
2022/09/20 09:45:27;;;;;;;0.73;0.73;;;;;12.90;96546.00;;;;5114715;28;20694;-68
2022/09/20 09:47:59;;;;;;;0.50;0.50;;;;;13.20;96555.00;;;;5114661;28;20590;-69
2022/09/20 09:50:29;;;;;;;0.53;0.53;;;;;13.30;96559.00;;;;5114481;28;20222;-68
2022/09/20 09:53:02;;;;;;;0.87;0.87;;;;;13.30;96553.00;;;;5114554;28;20217;-67
2022/09/20 09:55:55;;;;;;;0.53;0.53;;;;;13.40;96553.00;;;;5114395;28;20224;-68
2022/09/20 09:58:33;;;;;;;0.60;0.60;;;;;13.20;96555.00;;;;5114397;28;20194;-69
2022/09/20 10:01:04;;;;;;;0.53;0.53;;;;;13.10;96549.00;;;;5114359;28;20201;-68
2022/09/20 10:03:51;;;;;;;5.53;1.50;;;;;13.20;96546.00;;;;5096142;28;20193;-69
2022/09/20 10:06:24;;;;;;;0.60;0.60;;;;;13.40;96552.00;;;;5114362;28;20257;-68
2022/09/20 10:09:07;;;;;;;0.70;0.70;;;;;13.00;96549.00;;;;5113883;28;20222;-65
2022/09/20 10:11:47;;;;;;;0.50;0.50;;;;;12.90;96555.00;;;;5113641;28;20186;-73
2022/09/20 10:14:28;;;;;;;0.50;0.50;;;;;13.00;96551.00;;;;5114178;28;20221;-72
2022/09/20 10:17:20;;;;;;;0.60;0.60;;;;;13.00;96552.00;;;;5114635;28;20201;-69
2022/09/20 10:20:03;;;;;;;0.80;0.80;;;;;12.80;96545.00;;;;5114031;28;20232;-69
2022/09/20 10:22:40;;;;;;;4.90;2.07;;;;;13.10;96522.00;;;;5114161;28;20300;-67
2022/09/20 10:25:19;;;;;;;0.53;0.53;;;;;13.30;96557.00;;;;5115522;28;20197;-71
2022/09/20 10:28:01;;;;;;;0.50;0.50;;;;;12.90;96561.00;;;;5113761;28;20214;-71
2022/09/20 10:30:35;;;;;;;0.50;0.50;;;;;12.80;96556.00;;;;5113726;28;20193;-69
2022/09/20 10:33:14;;;;;;;0.83;0.83;;;;;12.70;96557.00;;;;5113753;28;20197;-70
2022/09/20 10:36:03;;;;;;;0.80;0.80;;;;;12.60;96543.00;;;;5113680;28;20212;-61
2022/09/20 10:38:34;;;;;;;1.10;1.10;;;;;13.10;96544.00;;;;5113584;28;20403;-61
2022/09/20 10:44:27;;;;;;;0.50;0.50;;;;;13.50;96548.00;;;;5113503;28;20205;-68
2022/09/20 10:47:02;;;;;;;0.70;0.70;;;;;13.80;96554.00;;;;5113591;28;20194;-70
2022/09/20 10:49:36;;;;;;;1.20;1.10;;;;;14.00;96550.00;;;;5113511;28;20301;-70
2022/09/20 10:52:22;;;;;;;0.70;0.70;;;;;14.10;96549.00;;;;5113671;28;20281;-71
2022/09/20 10:55:02;;;;;;;0.60;0.60;;;;;14.20;96561.00;;;;5113566;28;20214;-70
2022/09/20 10:57:51;;;;;;;0.50;0.50;;;;;14.00;96561.00;;;;5113479;28;20193;-70
2022/09/20 11:00:22;;;;;;;1.13;0.90;;;;;13.90;96561.00;;;;5095503;28;20222;-70
2022/09/20 11:03:01;;;;;;;0.50;0.50;;;;;13.90;96568.00;;;;5113722;28;20201;-70
2022/09/20 11:05:37;;;;;;;0.70;0.70;;;;;13.90;96560.00;;;;5113676;28;20209;-71
2022/09/20 11:08:11;;;;;;;0.40;0.40;;;;;13.90;96561.00;;;;5113578;28;20304;-70
2022/09/20 11:10:43;;;;;;;0.60;0.60;;;;;13.90;96560.00;;;;5113674;28;20214;-72
2022/09/20 11:13:21;;;;;;;0.93;0.93;;;;;13.90;96565.00;;;;5096020;28;20205;-72
2022/09/20 11:15:54;;;;;;;0.40;0.40;;;;;14.20;96569.00;;;;5113646;28;20200;-68
2022/09/20 11:18:31;;;;;;;0.60;0.60;;;;;14.20;96563.00;;;;5113717;28;20240;-70
2022/09/20 11:21:06;;;;;;;6.33;1.73;;;;;14.30;96566.00;;;;5113643;28;20206;-70
2022/09/20 11:23:50;;;;;;;0.63;0.63;;;;;14.90;96557.00;;;;5116638;28;20248;-71
2022/09/20 11:26:24;;;;;;;0.50;0.50;;;;;15.00;96541.00;;;;5117229;28;20248;-72
2022/09/20 11:28:56;;;;;;;1.03;0.97;;;;;15.10;96575.00;;;;5117058;28;20230;-67
2022/09/20 11:31:27;;;;;;;0.60;0.60;;;;;15.00;96577.00;;;;5117422;28;20178;-71
2022/09/20 11:33:59;;;;;;;0.70;0.70;;;;;15.10;96566.00;;;;5117355;28;20194;-71
2022/09/20 11:36:37;;;;;;;2.10;0.90;;;;;15.00;96569.00;;;;5117725;28;20775;-71
2022/09/20 11:39:10;;;;;;;0.43;0.43;;;;;15.10;96560.00;;;;5118218;28;20220;-68
2022/09/20 11:41:37;;;;;;;0.40;0.40;;;;;15.50;96556.00;;;;5116827;28;20217;-67
2022/09/20 11:44:10;;;;;;;0.90;0.90;;;;;15.70;96570.00;;;;5116800;28;20206;-69
2022/09/20 11:46:42;;;;;;;0.70;0.70;;;;;15.60;96559.00;;;;5116529;28;20222;-69
2022/09/20 11:49:14;;;;;;;0.50;0.50;;;;;15.60;96564.00;;;;5098682;28;20229;-71
2022/09/20 11:52:08;;;;;;;0.50;0.50;;;;;15.60;96564.00;;;;5116601;28;20229;-70
2022/09/20 11:55:11;;;;;;;0.50;0.50;;;;;15.40;96568.00;;;;5116633;28;20309;-70
2022/09/20 11:57:38;;;;;;;2.57;0.97;;;;;15.30;96572.00;;;;5108336;28;20327;-70
2022/09/20 12:00:08;;;;;;;0.77;0.77;;;;;14.90;96567.00;;;;5116371;28;20198;-70
2022/09/20 12:02:41;;;;;;;0.50;0.50;;;;;14.40;96571.00;;;;5116471;28;20198;-70
2022/09/20 12:05:26;;;;;;;0.57;0.57;;;;;14.40;96571.00;;;;5116612;28;20243;-70
2022/09/20 12:07:55;;;;;;;0.50;0.50;;;;;14.30;96576.00;;;;5116270;28;20229;-69
2022/09/20 12:10:24;;;;;;;0.40;0.40;;;;;14.30;96560.00;;;;5116199;28;20186;-70
2022/09/20 12:12:58;;;;;;;0.43;0.43;;;;;14.00;96563.00;;;;5116236;28;20569;-70
2022/09/20 12:15:29;;;;;;;0.50;0.50;;;;;14.00;96560.00;;;;5116422;28;20228;-71
2022/09/20 12:18:22;;;;;;;0.60;0.60;;;;;13.70;96558.00;;;;5116052;28;20206;-71
2022/09/20 12:21:10;;;;;;;0.93;0.80;;;;;13.70;96558.00;;;;5060874;28;20252;-71
2022/09/20 12:24:28;;;;;;;0.80;0.80;;;;;14.00;96549.00;;;;5115934;28;20296;-70
2022/09/20 12:26:56;;;;;;;0.50;0.50;;;;;14.20;96551.00;;;;5115934;28;20236;-71
2022/09/20 12:29:56;;;;;;;0.90;0.90;;;;;15.00;96537.00;;;;5115683;28;20218;-71
2022/09/20 12:32:56;;;;;;;0.60;0.60;;;;;14.70;96542.00;;;;5098281;28;20308;-71
2022/09/20 12:36:22;;;;;;;1.07;1.03;;;;;15.10;96538.00;;;;5115932;28;20194;-70
2022/09/20 12:39:04;;;;;;;1.10;1.10;;;;;15.20;96530.00;;;;5056044;28;20293;-70
2022/09/20 12:41:46;;;;;;;0.80;0.80;;;;;15.50;96518.00;;;;5116714;28;20202;-65
2022/09/20 12:44:28;;;;;;;0.50;0.50;;;;;15.60;96525.00;;;;5115960;28;20222;-67
2022/09/20 12:46:58;;;;;;;1.23;1.17;;;;;16.30;96510.00;;;;5115760;28;20197;-70
2022/09/20 12:52:57;;;;;;;0.80;0.80;;;;;17.20;96526.00;;;;5115375;28;20315;-70
2022/09/20 12:55:50;;;;;;;0.50;0.50;;;;;17.60;96535.00;;;;5115166;28;20264;-70
2022/09/20 12:58:32;;;;;;;0.90;0.90;;;;;17.60;96514.00;;;;5115203;28;20507;-71
2022/09/20 13:01:31;;;;;;;0.50;0.50;;;;;18.40;96504.00;;;;5115174;28;20214;-71
2022/09/20 13:04:55;;;;;;;1.90;1.07;;;;;18.40;96508.00;;;;5061293;28;20221;-71
2022/09/20 13:07:58;;;;;;;0.53;0.53;;;;;18.00;96524.00;;;;5096748;28;20699;-70
2022/09/20 13:10:32;;;;;;;0.73;0.70;;;;;18.00;96525.00;;;;5114990;28;20174;-71
2022/09/20 13:13:03;;;;;;;4.90;0.87;;;;;18.00;96516.00;;;;5096723;28;20221;-71
2022/09/20 13:15:32;;;;;;;2.70;1.37;;;;;17.40;96535.00;;;;5115059;28;20652;-71
2022/09/20 13:18:01;;;;;;;0.70;0.70;;;;;16.60;96538.00;;;;5097119;28;20287;-73
2022/09/20 13:20:33;;;;;;;0.63;0.63;;;;;16.00;96539.00;;;;5097109;28;20292;-72
2022/09/20 13:23:03;;;;;;;0.70;0.70;;;;;15.30;96531.00;;;;5115139;28;20243;-71
2022/09/20 13:25:33;;;;;;;0.63;0.63;;;;;14.90;96542.00;;;;5115079;28;20205;-72
2022/09/20 13:28:09;;;;;;;0.50;0.50;;;;;15.10;96534.00;;;;5114850;28;20221;-71